createdAt,value
2018-07-07T00:00:24.789Z,3.35
2018-07-07T00:02:52.885Z,3.60
2018-07-07T00:05:20.971Z,3.30
2018-07-07T00:07:49.068Z,3.10
2018-07-07T00:10:17.345Z,3.77
2018-07-07T00:12:45.753Z,3.47
2018-07-07T00:15:16.060Z,4.58
2018-07-07T00:17:44.660Z,3.27
2018-07-07T00:20:12.846Z,3.93
2018-07-07T00:22:40.955Z,3.87
2018-07-07T00:25:13.059Z,4.10
2018-07-07T00:27:41.170Z,3.90
2018-07-07T00:30:09.265Z,3.17
2018-07-07T00:32:37.356Z,4.33
2018-07-07T00:35:05.447Z,3.27
2018-07-07T00:37:33.509Z,4.00
2018-07-07T00:40:01.612Z,4.07
2018-07-07T00:42:29.825Z,3.37
2018-07-07T00:44:57.960Z,3.43
2018-07-07T00:47:26.054Z,3.30
2018-07-07T00:49:54.120Z,3.50
2018-07-07T00:52:22.234Z,4.07
2018-07-07T00:54:50.344Z,4.27
2018-07-07T00:57:18.447Z,3.50
2018-07-07T00:59:46.556Z,3.73
2018-07-07T01:02:18.663Z,4.73
2018-07-07T01:04:47.442Z,4.00
2018-07-07T01:07:15.535Z,4.00
2018-07-07T01:09:43.655Z,3.83
2018-07-07T01:12:11.739Z,4.70
2018-07-07T01:14:39.885Z,4.40
2018-07-07T01:17:07.997Z,3.70
2018-07-07T01:19:36.191Z,3.37
2018-07-07T01:22:06.067Z,4.22
2018-07-07T01:24:34.161Z,5.23
2018-07-07T01:27:02.233Z,3.60
2018-07-07T01:29:30.336Z,3.00
2018-07-07T01:31:58.438Z,3.33
2018-07-07T01:34:26.561Z,3.87
2018-07-07T01:36:54.660Z,3.37
2018-07-07T01:39:22.807Z,4.22
2018-07-07T01:41:50.939Z,4.20
2018-07-07T01:44:19.071Z,2.85
2018-07-07T01:46:47.161Z,3.52
2018-07-07T01:49:15.260Z,3.87
2018-07-07T01:51:43.342Z,3.75
2018-07-07T01:54:11.439Z,4.28
2018-07-07T01:56:39.504Z,4.03
2018-07-07T01:59:07.680Z,3.60
2018-07-07T02:01:36.629Z,3.90
2018-07-07T02:04:04.724Z,3.23
2018-07-07T02:06:33.089Z,3.93
2018-07-07T02:09:01.296Z,3.07
2018-07-07T02:11:29.411Z,3.83
2018-07-07T02:13:57.524Z,3.53
2018-07-07T02:16:25.618Z,3.30
2018-07-07T02:18:53.802Z,3.70
2018-07-07T02:21:21.880Z,3.77
2018-07-07T02:23:50.012Z,3.50
2018-07-07T02:26:18.147Z,4.17
2018-07-07T02:28:46.264Z,4.10
2018-07-07T02:31:14.396Z,4.00
2018-07-07T02:33:42.476Z,4.60
2018-07-07T02:36:10.596Z,5.10
2018-07-07T02:38:38.697Z,5.53
2018-07-07T02:41:06.800Z,4.20
2018-07-07T02:43:34.887Z,3.23
2018-07-07T02:46:02.965Z,4.87
2018-07-07T02:48:31.085Z,4.10
2018-07-07T02:50:59.147Z,3.73
2018-07-07T02:53:27.292Z,3.63
2018-07-07T02:55:55.403Z,4.10
2018-07-07T02:58:23.490Z,4.00
2018-07-07T03:00:51.606Z,3.70
2018-07-07T03:03:19.797Z,3.57
2018-07-07T03:05:47.847Z,3.13
2018-07-07T03:08:15.938Z,3.70
2018-07-07T03:10:44.022Z,3.10
2018-07-07T03:13:12.136Z,3.83
2018-07-07T03:15:40.225Z,4.30
2018-07-07T03:18:08.304Z,3.30
2018-07-07T03:20:36.421Z,3.63
2018-07-07T03:23:04.536Z,3.70
2018-07-07T03:25:32.630Z,3.13
2018-07-07T03:28:00.758Z,3.80
2018-07-07T03:30:28.857Z,3.70
2018-07-07T03:32:56.998Z,3.67
2018-07-07T03:35:25.081Z,3.63
2018-07-07T03:37:53.198Z,3.00
2018-07-07T03:40:21.290Z,3.75
2018-07-07T03:42:49.388Z,3.40
2018-07-07T03:45:17.491Z,5.22
2018-07-07T03:47:45.595Z,3.95
2018-07-07T03:50:13.729Z,3.85
2018-07-07T03:52:41.842Z,3.15
2018-07-07T03:55:09.967Z,4.53
2018-07-07T03:57:38.096Z,4.57
2018-07-07T04:00:06.215Z,3.00
2018-07-07T04:02:34.308Z,2.97
2018-07-07T04:05:02.382Z,3.13
2018-07-07T04:07:30.454Z,5.20
2018-07-07T04:09:58.546Z,4.10
2018-07-07T04:12:26.693Z,3.50
2018-07-07T04:14:54.816Z,3.20
2018-07-07T04:17:22.870Z,3.67
2018-07-07T04:19:50.991Z,3.07
2018-07-07T04:22:19.140Z,3.17
2018-07-07T04:24:47.222Z,3.50
2018-07-07T04:27:15.350Z,3.37
2018-07-07T04:29:43.460Z,3.08
2018-07-07T04:32:11.590Z,4.70
2018-07-07T04:34:39.715Z,3.75
2018-07-07T04:37:07.780Z,3.00
2018-07-07T04:39:35.876Z,3.87
2018-07-07T04:42:04.014Z,5.53
2018-07-07T04:44:32.150Z,2.97
2018-07-07T04:47:00.237Z,3.17
2018-07-07T04:49:28.410Z,2.97
2018-07-07T04:51:56.529Z,2.30
2018-07-07T04:54:24.629Z,3.73
2018-07-07T04:56:52.732Z,2.93
2018-07-07T04:59:20.829Z,3.30
2018-07-07T05:01:48.925Z,2.93
2018-07-07T05:04:17.037Z,3.10
2018-07-07T05:06:45.139Z,4.03
2018-07-07T05:09:13.341Z,2.80
2018-07-07T05:11:41.455Z,2.97
2018-07-07T05:14:09.588Z,3.13
2018-07-07T05:16:37.669Z,2.80
2018-07-07T05:19:05.801Z,2.40
2018-07-07T05:21:33.883Z,2.70
2018-07-07T05:24:01.965Z,2.93
2018-07-07T05:26:30.113Z,2.13
2018-07-07T05:28:58.202Z,2.70
2018-07-07T05:31:26.304Z,2.27
2018-07-07T05:33:54.445Z,2.73
2018-07-07T05:36:22.562Z,2.27
2018-07-07T05:38:50.704Z,3.17
2018-07-07T05:41:18.850Z,2.40
2018-07-07T05:43:46.965Z,2.77
2018-07-07T05:46:15.076Z,3.10
2018-07-07T05:48:43.155Z,2.73
2018-07-07T05:51:11.266Z,2.40
2018-07-07T05:53:39.451Z,2.87
2018-07-07T05:56:07.551Z,3.27
2018-07-07T05:58:35.650Z,2.50
2018-07-07T06:01:03.730Z,2.73
2018-07-07T06:03:31.831Z,2.00
2018-07-07T06:05:59.902Z,2.17
2018-07-07T06:08:28.142Z,2.83
2018-07-07T06:10:56.284Z,2.03
2018-07-07T06:13:24.376Z,3.50
2018-07-07T06:15:52.487Z,1.90
2018-07-07T06:18:20.693Z,2.27
2018-07-07T06:20:48.807Z,2.20
2018-07-07T06:23:16.933Z,2.57
2018-07-07T06:25:45.066Z,2.87
2018-07-07T06:28:13.176Z,2.20
2018-07-07T06:30:41.295Z,2.80
2018-07-07T06:33:09.397Z,2.83
2018-07-07T06:35:37.507Z,2.60
2018-07-07T06:38:06.172Z,2.47
2018-07-07T06:40:34.323Z,2.17
2018-07-07T06:43:02.478Z,2.00
2018-07-07T06:45:30.604Z,2.23
2018-07-07T06:47:58.707Z,2.10
2018-07-07T06:50:26.880Z,2.43
2018-07-07T06:52:55.092Z,2.70
2018-07-07T06:55:23.191Z,2.03
2018-07-07T06:57:51.329Z,2.03
2018-07-07T07:00:19.444Z,2.03
2018-07-07T07:02:47.586Z,2.67
2018-07-07T07:05:15.710Z,2.50
2018-07-07T07:07:43.855Z,2.87
2018-07-07T07:10:11.976Z,2.20
2018-07-07T07:12:40.121Z,1.97
2018-07-07T07:15:08.221Z,1.97
2018-07-07T07:17:36.394Z,1.80
2018-07-07T07:20:04.542Z,2.67
2018-07-07T07:22:32.684Z,2.90
2018-07-07T07:25:00.916Z,2.30
2018-07-07T07:27:29.556Z,2.10
2018-07-07T07:29:57.670Z,2.27
2018-07-07T07:32:25.778Z,2.10
2018-07-07T07:34:54.840Z,2.40
2018-07-07T07:37:23.033Z,2.57
2018-07-07T07:39:51.120Z,2.40
2018-07-07T07:42:19.232Z,2.40
2018-07-07T07:44:47.375Z,2.20
2018-07-07T07:47:15.636Z,2.17
2018-07-07T07:49:43.760Z,1.77
2018-07-07T07:52:11.891Z,2.13
2018-07-07T07:54:40.033Z,2.40
2018-07-07T07:57:08.167Z,2.63
2018-07-07T07:59:36.290Z,2.47
2018-07-07T08:02:04.419Z,2.10
2018-07-07T08:04:32.547Z,2.07
2018-07-07T08:07:00.675Z,2.13
2018-07-07T08:09:28.846Z,2.17
2018-07-07T08:11:56.963Z,2.30
2018-07-07T08:14:25.134Z,2.10
2018-07-07T08:16:53.288Z,1.80
2018-07-07T08:19:21.430Z,1.83
2018-07-07T08:21:49.571Z,1.83
2018-07-07T08:24:17.760Z,1.77
2018-07-07T08:26:45.884Z,1.70
2018-07-07T08:29:14.015Z,2.07
2018-07-07T08:31:42.136Z,1.67
2018-07-07T08:34:10.269Z,2.10
2018-07-07T08:36:38.432Z,1.77
2018-07-07T08:39:06.619Z,1.95
2018-07-07T08:41:34.768Z,1.50
2018-07-07T08:44:02.887Z,1.90
2018-07-07T08:46:31.031Z,1.70
2018-07-07T08:48:59.116Z,1.20
2018-07-07T08:51:27.209Z,2.00
2018-07-07T08:53:55.316Z,2.23
2018-07-07T08:56:23.441Z,1.87
2018-07-07T08:58:51.542Z,1.97
2018-07-07T09:01:19.636Z,1.70
2018-07-07T09:03:47.784Z,2.40
2018-07-07T09:06:15.887Z,2.00
2018-07-07T09:08:44.044Z,1.67
2018-07-07T09:11:12.425Z,1.77
2018-07-07T09:13:40.504Z,1.53
2018-07-07T09:16:08.600Z,1.40
2018-07-07T09:18:36.680Z,1.57
2018-07-07T09:21:04.812Z,2.10
2018-07-07T09:23:32.905Z,1.60
2018-07-07T09:26:00.998Z,1.60
2018-07-07T09:28:29.066Z,1.60
2018-07-07T09:30:57.187Z,2.23
2018-07-07T09:33:25.316Z,1.90
2018-07-07T09:35:53.436Z,1.63
2018-07-07T09:38:21.536Z,1.80
2018-07-07T09:40:49.631Z,2.63
2018-07-07T09:43:17.777Z,2.13
2018-07-07T09:45:45.923Z,1.90
2018-07-07T09:48:14.055Z,1.50
2018-07-07T09:50:42.129Z,2.30
2018-07-07T09:53:10.292Z,1.63
2018-07-07T09:55:38.388Z,2.60
2018-07-07T09:58:06.533Z,1.83
2018-07-07T10:00:40.520Z,2.23
2018-07-07T10:03:08.701Z,1.60
2018-07-07T10:05:37.115Z,1.60
2018-07-07T10:08:05.445Z,1.70
2018-07-07T10:10:33.962Z,2.37
2018-07-07T10:13:02.176Z,1.50
2018-07-07T10:15:30.352Z,1.83
2018-07-07T10:17:58.466Z,1.70
2018-07-07T10:20:26.782Z,1.90
2018-07-07T10:22:54.883Z,2.27
2018-07-07T10:25:23.004Z,2.03
2018-07-07T10:27:52.223Z,2.60
2018-07-07T10:30:20.442Z,2.53
2018-07-07T10:32:48.645Z,1.83
2018-07-07T10:35:16.753Z,1.52
2018-07-07T10:37:44.857Z,1.90
2018-07-07T10:40:12.984Z,1.53
2018-07-07T10:42:41.108Z,2.20
2018-07-07T10:45:09.254Z,2.10
2018-07-07T10:47:37.368Z,1.83
2018-07-07T10:50:05.470Z,1.87
2018-07-07T10:52:33.582Z,1.80
2018-07-07T10:55:01.738Z,2.73
2018-07-07T10:57:29.821Z,2.40
2018-07-07T10:59:58.064Z,1.80
2018-07-07T11:02:26.151Z,2.00
2018-07-07T11:04:54.272Z,1.67
2018-07-07T11:07:22.351Z,1.73
2018-07-07T11:09:50.428Z,1.95
2018-07-07T11:12:18.532Z,1.87
2018-07-07T11:14:46.718Z,1.90
2018-07-07T11:17:14.891Z,1.50
2018-07-07T11:19:42.982Z,1.67
2018-07-07T11:22:11.116Z,1.97
2018-07-07T11:24:40.167Z,2.22
2018-07-07T11:27:08.600Z,1.70
2018-07-07T11:29:36.696Z,1.70
2018-07-07T11:32:04.766Z,2.27
2018-07-07T11:34:32.928Z,1.77
2018-07-07T11:37:01.148Z,1.87
2018-07-07T11:39:29.197Z,1.97
2018-07-07T11:41:57.323Z,2.57
2018-07-07T11:44:25.420Z,2.17
2018-07-07T11:46:53.571Z,2.10
2018-07-07T11:49:21.682Z,1.60
2018-07-07T11:51:49.797Z,2.13
2018-07-07T11:54:17.952Z,2.20
2018-07-07T11:56:46.020Z,1.83
2018-07-07T11:59:14.092Z,1.70
2018-07-07T12:01:42.240Z,1.80
2018-07-07T12:04:10.315Z,1.77
2018-07-07T12:06:38.479Z,1.50
2018-07-07T12:09:07.150Z,1.77
2018-07-07T12:11:35.310Z,1.40
2018-07-07T12:14:03.441Z,1.73
2018-07-07T12:16:31.513Z,2.30
2018-07-07T12:18:59.638Z,2.00
2018-07-07T12:21:27.720Z,1.53
2018-07-07T12:23:55.821Z,1.97
2018-07-07T12:26:23.921Z,2.20
2018-07-07T12:28:52.368Z,1.70
2018-07-07T12:31:20.563Z,2.17
2018-07-07T12:33:48.682Z,1.70
2018-07-07T12:36:16.818Z,1.80
2018-07-07T12:38:44.955Z,1.63
2018-07-07T12:41:13.073Z,2.37
2018-07-07T12:43:41.217Z,2.03
2018-07-07T12:46:09.316Z,1.70
2018-07-07T12:48:37.497Z,1.93
2018-07-07T12:51:05.682Z,2.00
2018-07-07T12:53:33.813Z,2.40
2018-07-07T12:56:01.990Z,2.03
2018-07-07T12:58:30.081Z,2.03
2018-07-07T13:00:58.188Z,1.90
2018-07-07T13:03:26.281Z,1.87
2018-07-07T13:05:54.400Z,2.07
2018-07-07T13:08:22.486Z,2.10
2018-07-07T13:10:50.568Z,2.00
2018-07-07T13:13:18.676Z,1.60
2018-07-07T13:15:46.786Z,1.70
2018-07-07T13:18:14.872Z,1.90
2018-07-07T13:20:42.995Z,2.10
2018-07-07T13:23:11.077Z,2.00
2018-07-07T13:25:39.193Z,1.70
2018-07-07T13:28:07.271Z,2.20
2018-07-07T13:30:35.379Z,1.80
2018-07-07T13:33:03.494Z,1.63
2018-07-07T13:35:31.613Z,2.30
2018-07-07T13:37:59.724Z,2.10
2018-07-07T13:40:27.824Z,1.50
2018-07-07T13:42:55.929Z,1.60
2018-07-07T13:45:24.080Z,1.83
2018-07-07T13:47:52.157Z,2.37
2018-07-07T13:50:20.303Z,1.90
2018-07-07T13:52:48.452Z,2.10
2018-07-07T13:55:16.544Z,2.00
2018-07-07T13:57:44.636Z,1.73
2018-07-07T14:00:12.724Z,1.83
2018-07-07T14:02:40.859Z,2.80
2018-07-07T14:05:09.244Z,1.87
2018-07-07T14:07:37.342Z,1.60
2018-07-07T14:10:05.725Z,1.70
2018-07-07T14:12:33.860Z,1.80
2018-07-07T14:15:02.062Z,1.87
2018-07-07T14:17:30.211Z,2.07
2018-07-07T14:19:58.286Z,1.90
2018-07-07T14:22:27.230Z,1.80
2018-07-07T14:24:55.335Z,3.00
2018-07-07T14:27:23.981Z,2.20
2018-07-07T14:29:52.106Z,1.87
2018-07-07T14:32:20.204Z,2.10
2018-07-07T14:34:48.324Z,2.20
2018-07-07T14:37:16.424Z,2.17
2018-07-07T14:39:56.231Z,1.98
2018-07-07T14:42:35.068Z,2.73
2018-07-07T14:45:08.268Z,2.27
2018-07-07T14:47:36.322Z,1.55
2018-07-07T14:50:04.430Z,1.90
2018-07-07T14:52:32.513Z,1.70
2018-07-07T14:55:00.629Z,1.80
2018-07-07T14:57:28.782Z,1.90
2018-07-07T14:59:56.876Z,2.25
2018-07-07T15:02:25.051Z,2.02
2018-07-07T15:04:53.160Z,1.97
2018-07-07T15:07:21.272Z,2.17
2018-07-07T15:09:49.399Z,2.08
2018-07-07T15:12:17.512Z,2.43
2018-07-07T15:14:45.641Z,2.10
2018-07-07T15:17:13.718Z,2.10
2018-07-07T15:19:42.731Z,2.02
2018-07-07T15:22:10.911Z,1.93
2018-07-07T15:24:39.206Z,1.73
2018-07-07T15:27:07.314Z,2.13
2018-07-07T15:29:35.550Z,1.90
2018-07-07T15:32:03.756Z,1.43
2018-07-07T15:34:31.885Z,1.80
2018-07-07T15:37:00.038Z,2.00
2018-07-07T15:39:28.192Z,1.77
2018-07-07T15:41:56.358Z,2.70
2018-07-07T15:44:24.442Z,1.80
2018-07-07T15:46:52.790Z,1.90
2018-07-07T15:49:20.944Z,2.23
2018-07-07T15:51:49.038Z,2.20
2018-07-07T15:54:17.165Z,2.23
2018-07-07T15:56:45.293Z,1.90
2018-07-07T15:59:13.376Z,1.80
2018-07-07T16:01:41.480Z,2.37
2018-07-07T16:04:09.607Z,1.80
2018-07-07T16:06:37.754Z,1.83
2018-07-07T16:09:06.679Z,2.00
2018-07-07T16:11:35.038Z,2.00
2018-07-07T16:14:03.165Z,2.30
2018-07-07T16:16:31.302Z,2.33
2018-07-07T16:18:59.462Z,2.00
2018-07-07T16:21:27.586Z,1.93
2018-07-07T16:23:55.709Z,1.70
2018-07-07T16:26:23.844Z,1.73
2018-07-07T16:28:52.288Z,1.83
2018-07-07T16:31:20.425Z,1.57
2018-07-07T16:33:48.523Z,1.80
2018-07-07T16:36:16.666Z,2.27
2018-07-07T16:38:44.826Z,1.80
2018-07-07T16:41:12.931Z,1.60
2018-07-07T16:43:41.303Z,2.50
2018-07-07T16:46:09.574Z,1.70
2018-07-07T16:48:37.688Z,2.20
2018-07-07T16:51:05.940Z,2.03
2018-07-07T16:53:34.302Z,2.17
2018-07-07T16:56:02.520Z,2.02
2018-07-07T16:58:30.658Z,2.40
2018-07-07T17:00:58.875Z,2.27
2018-07-07T17:03:27.015Z,1.85
2018-07-07T17:05:55.139Z,2.67
2018-07-07T17:08:23.225Z,2.25
2018-07-07T17:10:51.352Z,1.90
2018-07-07T17:13:19.455Z,2.80
2018-07-07T17:15:47.601Z,3.10
2018-07-07T17:18:15.742Z,2.20
2018-07-07T17:20:43.888Z,2.40
2018-07-07T17:23:11.964Z,2.30
2018-07-07T17:25:40.236Z,2.27
2018-07-07T17:28:08.492Z,1.83
2018-07-07T17:30:36.605Z,2.47
2018-07-07T17:33:04.702Z,2.20
2018-07-07T17:35:33.057Z,2.30
2018-07-07T17:38:01.208Z,3.13
2018-07-07T17:40:29.341Z,2.30
2018-07-07T17:42:57.454Z,2.57
2018-07-07T17:45:25.577Z,2.40
2018-07-07T17:47:53.907Z,3.17
2018-07-07T17:50:22.007Z,3.20
2018-07-07T17:52:50.170Z,2.95
2018-07-07T17:55:18.277Z,2.70
2018-07-07T17:57:46.399Z,2.50
2018-07-07T18:00:14.606Z,3.12
2018-07-07T18:02:42.721Z,2.83
2018-07-07T18:05:10.817Z,2.85
2018-07-07T18:07:38.910Z,2.77
2018-07-07T18:10:07.030Z,2.50
2018-07-07T18:12:35.235Z,3.50
2018-07-07T18:15:03.369Z,2.80
2018-07-07T18:17:31.468Z,2.45
2018-07-07T18:19:59.600Z,2.93
2018-07-07T18:22:27.697Z,2.70
2018-07-07T18:24:55.799Z,3.10
2018-07-07T18:27:23.960Z,3.03
2018-07-07T18:29:52.043Z,2.50
2018-07-07T18:32:20.138Z,2.90
2018-07-07T18:34:48.226Z,2.70
2018-07-07T18:37:16.337Z,2.30
2018-07-07T18:39:44.453Z,2.45
2018-07-07T18:42:12.540Z,2.70
2018-07-07T18:44:40.692Z,2.60
2018-07-07T18:47:08.782Z,2.47
2018-07-07T18:49:38.193Z,2.50
2018-07-07T18:52:06.383Z,2.70
2018-07-07T18:54:34.549Z,3.20
2018-07-07T18:57:02.649Z,2.35
2018-07-07T18:59:30.719Z,3.30
2018-07-07T19:01:58.841Z,3.50
2018-07-07T19:04:26.922Z,2.85
2018-07-07T19:06:55.076Z,2.80
2018-07-07T19:09:23.208Z,2.67
2018-07-07T19:11:51.300Z,3.00
2018-07-07T19:14:19.472Z,2.73
2018-07-07T19:16:47.572Z,2.50
2018-07-07T19:19:15.738Z,2.37
2018-07-07T19:21:49.099Z,3.20
2018-07-07T19:24:22.524Z,2.73
2018-07-07T19:26:52.067Z,3.25
2018-07-07T19:29:21.068Z,3.00
2018-07-07T19:31:54.616Z,3.00
2018-07-07T19:34:27.987Z,4.13
2018-07-07T19:37:01.404Z,3.47
2018-07-07T19:39:29.490Z,3.43
2018-07-07T19:41:58.123Z,3.53
2018-07-07T19:44:26.246Z,3.40
2018-07-07T19:46:55.216Z,3.07
2018-07-07T19:49:23.314Z,3.50
2018-07-07T19:51:51.469Z,2.83
2018-07-07T19:54:19.600Z,4.23
2018-07-07T19:56:47.709Z,4.10
2018-07-07T19:59:15.832Z,2.60
2018-07-07T20:01:43.933Z,3.00
2018-07-07T20:04:12.031Z,3.10
2018-07-07T20:06:40.131Z,3.33
2018-07-07T20:09:08.453Z,3.00
2018-07-07T20:11:36.549Z,3.00
2018-07-07T20:14:04.650Z,3.10
2018-07-07T20:16:40.860Z,4.23
2018-07-07T20:19:17.592Z,2.63
2018-07-07T20:21:53.974Z,3.60
2018-07-07T20:24:23.405Z,3.10
2018-07-07T20:26:56.940Z,3.40
2018-07-07T20:29:25.054Z,2.97
2018-07-07T20:31:54.563Z,3.37
2018-07-07T20:34:25.707Z,2.90
2018-07-07T20:36:54.201Z,3.30
2018-07-07T20:39:22.492Z,3.10
2018-07-07T20:41:51.164Z,3.40
2018-07-07T20:44:19.661Z,3.17
2018-07-07T20:46:48.145Z,3.23
2018-07-07T20:49:16.260Z,3.50
2018-07-07T20:51:44.395Z,4.30
2018-07-07T20:54:12.504Z,3.57
2018-07-07T20:56:40.639Z,3.67
2018-07-07T20:59:08.751Z,3.10
2018-07-07T21:01:36.865Z,2.80
2018-07-07T21:04:04.995Z,3.00
2018-07-07T21:06:33.891Z,3.80
2018-07-07T21:09:02.050Z,3.30
2018-07-07T21:11:30.201Z,3.47
2018-07-07T21:13:58.348Z,3.70
2018-07-07T21:16:26.470Z,3.63
2018-07-07T21:18:55.103Z,3.50
2018-07-07T21:21:23.459Z,3.37
2018-07-07T21:23:51.551Z,3.33
2018-07-07T21:26:19.733Z,3.17
2018-07-07T21:28:47.845Z,2.97
2018-07-07T21:31:15.960Z,3.60
2018-07-07T21:33:44.102Z,3.13
2018-07-07T21:36:12.247Z,3.27
2018-07-07T21:38:40.391Z,3.70
2018-07-07T21:41:08.513Z,4.03
2018-07-07T21:43:36.619Z,4.30
2018-07-07T21:46:04.768Z,3.60
2018-07-07T21:48:32.901Z,4.20
2018-07-07T21:51:01.011Z,3.27
2018-07-07T21:53:29.416Z,3.55
2018-07-07T21:55:57.498Z,3.40
2018-07-07T21:58:27.190Z,4.30
2018-07-07T22:01:10.957Z,3.45
2018-07-07T22:03:44.836Z,3.73
2018-07-07T22:06:13.939Z,5.28
2018-07-07T22:08:42.017Z,3.10
2018-07-07T22:11:10.120Z,3.30
2018-07-07T22:13:38.279Z,4.22
2018-07-07T22:16:06.423Z,5.47
2018-07-07T22:18:34.566Z,4.00
2018-07-07T22:21:14.126Z,3.57
2018-07-07T22:23:42.259Z,3.83
2018-07-07T22:26:10.396Z,3.50
2018-07-07T22:28:38.493Z,3.90
2018-07-07T22:31:06.637Z,3.70
2018-07-07T22:33:34.770Z,3.97
2018-07-07T22:36:08.259Z,3.23
2018-07-07T22:38:41.752Z,3.33
2018-07-07T22:41:09.832Z,3.80
2018-07-07T22:43:37.962Z,4.17
2018-07-07T22:46:06.166Z,4.47
2018-07-07T22:48:34.256Z,3.60
2018-07-07T22:51:02.380Z,3.70
2018-07-07T22:53:30.509Z,3.30
2018-07-07T22:55:58.658Z,3.90
2018-07-07T22:58:26.792Z,3.80
2018-07-07T23:00:54.917Z,4.12
2018-07-07T23:03:23.040Z,4.10
2018-07-07T23:05:51.155Z,3.17
2018-07-07T23:08:19.338Z,3.37
2018-07-07T23:10:47.392Z,3.63
2018-07-07T23:13:15.503Z,3.30
2018-07-07T23:15:43.611Z,3.72
2018-07-07T23:18:11.690Z,3.22
2018-07-07T23:20:39.753Z,3.93
2018-07-07T23:23:07.840Z,4.62
2018-07-07T23:25:35.980Z,3.85
2018-07-07T23:28:04.076Z,3.87
2018-07-07T23:30:32.191Z,4.15
2018-07-07T23:33:00.301Z,3.97
2018-07-07T23:35:28.400Z,3.60
2018-07-07T23:37:56.466Z,3.73
2018-07-07T23:40:24.555Z,5.03
2018-07-07T23:42:52.641Z,4.62
2018-07-07T23:45:20.756Z,3.25
2018-07-07T23:47:48.833Z,4.80
2018-07-07T23:50:16.903Z,4.20
2018-07-07T23:52:45.019Z,4.00
2018-07-07T23:55:13.137Z,3.57
2018-07-07T23:57:41.234Z,4.30
